sensor_id;sensor_type;location;lat;lon;timestamp;temperature;humidity
57566;DHT22;63999;43.882;-0.310;2023-09-19T00:00:56;21.50;74.60
57566;DHT22;63999;43.882;-0.310;2023-09-19T00:03:24;21.50;74.50
57566;DHT22;63999;43.882;-0.310;2023-09-19T00:05:54;21.50;74.60
57566;DHT22;63999;43.882;-0.310;2023-09-19T00:08:21;21.40;74.60
57566;DHT22;63999;43.882;-0.310;2023-09-19T00:10:54;21.40;74.60
57566;DHT22;63999;43.882;-0.310;2023-09-19T00:13:20;21.40;74.60
57566;DHT22;63999;43.882;-0.310;2023-09-19T00:15:47;21.40;74.60
57566;DHT22;63999;43.882;-0.310;2023-09-19T00:18:18;21.40;74.50
57566;DHT22;63999;43.882;-0.310;2023-09-19T00:20:50;21.40;74.50
57566;DHT22;63999;43.882;-0.310;2023-09-19T00:23:17;21.40;74.60
57566;DHT22;63999;43.882;-0.310;2023-09-19T00:25:44;21.40;74.60
57566;DHT22;63999;43.882;-0.310;2023-09-19T00:28:10;21.40;74.50
57566;DHT22;63999;43.882;-0.310;2023-09-19T00:30:37;21.40;74.50
57566;DHT22;63999;43.882;-0.310;2023-09-19T00:33:04;21.30;74.50
57566;DHT22;63999;43.882;-0.310;2023-09-19T00:35:32;21.30;74.40
57566;DHT22;63999;43.882;-0.310;2023-09-19T00:37:59;21.30;74.40
57566;DHT22;63999;43.882;-0.310;2023-09-19T00:40:24;21.30;74.40
57566;DHT22;63999;43.882;-0.310;2023-09-19T00:42:51;21.30;74.40
57566;DHT22;63999;43.882;-0.310;2023-09-19T00:45:18;21.20;74.40
57566;DHT22;63999;43.882;-0.310;2023-09-19T00:47:48;21.20;74.50
57566;DHT22;63999;43.882;-0.310;2023-09-19T00:50:31;21.10;74.40
57566;DHT22;63999;43.882;-0.310;2023-09-19T00:53:02;21.10;74.50
57566;DHT22;63999;43.882;-0.310;2023-09-19T00:55:37;21.10;74.50
57566;DHT22;63999;43.882;-0.310;2023-09-19T00:58:07;21.10;74.40
57566;DHT22;63999;43.882;-0.310;2023-09-19T01:00:48;21.10;74.40
57566;DHT22;63999;43.882;-0.310;2023-09-19T01:03:14;21.10;74.40
57566;DHT22;63999;43.882;-0.310;2023-09-19T01:05:56;21.10;74.40
57566;DHT22;63999;43.882;-0.310;2023-09-19T01:08:49;21.10;74.40
57566;DHT22;63999;43.882;-0.310;2023-09-19T01:11:37;21.10;74.40
57566;DHT22;63999;43.882;-0.310;2023-09-19T01:14:37;21.00;74.30
57566;DHT22;63999;43.882;-0.310;2023-09-19T01:17:34;21.00;74.40
57566;DHT22;63999;43.882;-0.310;2023-09-19T01:20:25;21.00;74.40
57566;DHT22;63999;43.882;-0.310;2023-09-19T01:22:58;21.00;74.40
57566;DHT22;63999;43.882;-0.310;2023-09-19T01:31:20;21.00;74.30
57566;DHT22;63999;43.882;-0.310;2023-09-19T01:34:01;21.00;74.30
57566;DHT22;63999;43.882;-0.310;2023-09-19T01:36:34;20.90;74.40
57566;DHT22;63999;43.882;-0.310;2023-09-19T01:39:11;20.90;74.30
57566;DHT22;63999;43.882;-0.310;2023-09-19T01:42:09;20.90;74.40
57566;DHT22;63999;43.882;-0.310;2023-09-19T01:44:49;20.90;74.30
57566;DHT22;63999;43.882;-0.310;2023-09-19T01:47:31;20.90;74.40
57566;DHT22;63999;43.882;-0.310;2023-09-19T01:50:32;20.90;74.30
57566;DHT22;63999;43.882;-0.310;2023-09-19T01:53:07;20.90;74.30
57566;DHT22;63999;43.882;-0.310;2023-09-19T01:55:45;20.90;74.40
57566;DHT22;63999;43.882;-0.310;2023-09-19T02:00:44;20.80;74.30
57566;DHT22;63999;43.882;-0.310;2023-09-19T02:03:11;20.90;74.30
57566;DHT22;63999;43.882;-0.310;2023-09-19T02:05:38;20.90;74.20
57566;DHT22;63999;43.882;-0.310;2023-09-19T02:08:05;20.80;74.30
57566;DHT22;63999;43.882;-0.310;2023-09-19T02:10:31;20.90;74.20
57566;DHT22;63999;43.882;-0.310;2023-09-19T02:12:56;20.80;74.20
57566;DHT22;63999;43.882;-0.310;2023-09-19T02:15:22;20.80;74.20
57566;DHT22;63999;43.882;-0.310;2023-09-19T02:17:49;20.80;74.20
57566;DHT22;63999;43.882;-0.310;2023-09-19T02:20:15;20.80;74.30
57566;DHT22;63999;43.882;-0.310;2023-09-19T02:22:42;20.80;74.10
57566;DHT22;63999;43.882;-0.310;2023-09-19T02:25:28;20.80;74.10
57566;DHT22;63999;43.882;-0.310;2023-09-19T02:27:55;20.80;74.10
57566;DHT22;63999;43.882;-0.310;2023-09-19T02:30:24;20.80;74.00
57566;DHT22;63999;43.882;-0.310;2023-09-19T02:32:54;20.80;74.10
57566;DHT22;63999;43.882;-0.310;2023-09-19T02:35:20;20.80;74.10
57566;DHT22;63999;43.882;-0.310;2023-09-19T02:40:32;20.70;74.00
57566;DHT22;63999;43.882;-0.310;2023-09-19T02:43:13;20.70;74.10
57566;DHT22;63999;43.882;-0.310;2023-09-19T02:46:04;20.70;74.00
57566;DHT22;63999;43.882;-0.310;2023-09-19T02:48:38;20.70;74.00
57566;DHT22;63999;43.882;-0.310;2023-09-19T02:51:05;20.70;73.90
57566;DHT22;63999;43.882;-0.310;2023-09-19T02:53:30;20.70;73.90
57566;DHT22;63999;43.882;-0.310;2023-09-19T02:55:58;20.70;74.00
57566;DHT22;63999;43.882;-0.310;2023-09-19T02:58:24;20.70;74.00
57566;DHT22;63999;43.882;-0.310;2023-09-19T03:00:51;20.70;73.90
57566;DHT22;63999;43.882;-0.310;2023-09-19T03:03:17;20.70;74.00
57566;DHT22;63999;43.882;-0.310;2023-09-19T03:05:43;20.70;74.00
57566;DHT22;63999;43.882;-0.310;2023-09-19T03:08:22;20.60;74.00
57566;DHT22;63999;43.882;-0.310;2023-09-19T03:10:52;20.60;74.00
57566;DHT22;63999;43.882;-0.310;2023-09-19T03:13:18;20.60;74.00
57566;DHT22;63999;43.882;-0.310;2023-09-19T03:15:44;20.60;74.10
57566;DHT22;63999;43.882;-0.310;2023-09-19T03:18:12;20.50;74.20
57566;DHT22;63999;43.882;-0.310;2023-09-19T03:20:38;20.50;74.20
57566;DHT22;63999;43.882;-0.310;2023-09-19T03:23:04;20.50;74.20
57566;DHT22;63999;43.882;-0.310;2023-09-19T03:25:34;20.50;74.20
57566;DHT22;63999;43.882;-0.310;2023-09-19T03:28:07;20.50;74.30
57566;DHT22;63999;43.882;-0.310;2023-09-19T03:30:33;20.40;74.30
57566;DHT22;63999;43.882;-0.310;2023-09-19T03:33:02;20.40;74.30
57566;DHT22;63999;43.882;-0.310;2023-09-19T03:35:45;20.30;74.40
57566;DHT22;63999;43.882;-0.310;2023-09-19T03:38:21;20.30;74.40
57566;DHT22;63999;43.882;-0.310;2023-09-19T03:40:48;20.30;74.50
57566;DHT22;63999;43.882;-0.310;2023-09-19T03:43:14;20.30;74.60
57566;DHT22;63999;43.882;-0.310;2023-09-19T03:45:40;20.20;74.60
57566;DHT22;63999;43.882;-0.310;2023-09-19T03:48:10;20.20;74.60
57566;DHT22;63999;43.882;-0.310;2023-09-19T03:50:36;20.10;74.70
57566;DHT22;63999;43.882;-0.310;2023-09-19T03:53:01;20.10;74.70
57566;DHT22;63999;43.882;-0.310;2023-09-19T03:55:28;20.10;74.60
57566;DHT22;63999;43.882;-0.310;2023-09-19T03:57:56;20.10;74.70
57566;DHT22;63999;43.882;-0.310;2023-09-19T04:00:22;20.10;74.70
57566;DHT22;63999;43.882;-0.310;2023-09-19T04:02:52;20.00;74.70
57566;DHT22;63999;43.882;-0.310;2023-09-19T04:05:18;20.00;74.70
57566;DHT22;63999;43.882;-0.310;2023-09-19T04:07:44;20.00;74.70
57566;DHT22;63999;43.882;-0.310;2023-09-19T04:10:11;20.00;74.80
57566;DHT22;63999;43.882;-0.310;2023-09-19T04:12:59;20.00;74.70
57566;DHT22;63999;43.882;-0.310;2023-09-19T04:15:32;19.90;74.70
57566;DHT22;63999;43.882;-0.310;2023-09-19T04:18:01;19.90;74.70
57566;DHT22;63999;43.882;-0.310;2023-09-19T04:20:28;19.90;74.80
57566;DHT22;63999;43.882;-0.310;2023-09-19T04:22:54;19.90;74.70
57566;DHT22;63999;43.882;-0.310;2023-09-19T04:25:20;19.90;74.80
57566;DHT22;63999;43.882;-0.310;2023-09-19T04:27:46;19.80;74.80
57566;DHT22;63999;43.882;-0.310;2023-09-19T04:30:12;19.80;74.70
57566;DHT22;63999;43.882;-0.310;2023-09-19T04:32:41;19.80;74.80
57566;DHT22;63999;43.882;-0.310;2023-09-19T04:35:08;19.80;74.90
57566;DHT22;63999;43.882;-0.310;2023-09-19T04:37:36;19.70;74.70
57566;DHT22;63999;43.882;-0.310;2023-09-19T04:40:03;19.70;74.80
57566;DHT22;63999;43.882;-0.310;2023-09-19T04:42:31;19.70;74.80
57566;DHT22;63999;43.882;-0.310;2023-09-19T04:44:57;19.70;74.80
57566;DHT22;63999;43.882;-0.310;2023-09-19T04:47:26;19.70;74.70
57566;DHT22;63999;43.882;-0.310;2023-09-19T04:52:55;19.70;74.80
57566;DHT22;63999;43.882;-0.310;2023-09-19T04:55:20;19.70;74.80
57566;DHT22;63999;43.882;-0.310;2023-09-19T04:57:48;19.70;74.80
57566;DHT22;63999;43.882;-0.310;2023-09-19T05:00:15;19.60;74.80
57566;DHT22;63999;43.882;-0.310;2023-09-19T05:02:42;19.70;74.70
57566;DHT22;63999;43.882;-0.310;2023-09-19T05:05:09;19.60;74.70
57566;DHT22;63999;43.882;-0.310;2023-09-19T05:07:37;19.50;74.70
57566;DHT22;63999;43.882;-0.310;2023-09-19T05:10:03;19.50;74.80
57566;DHT22;63999;43.882;-0.310;2023-09-19T05:12:35;19.50;74.90
57566;DHT22;63999;43.882;-0.310;2023-09-19T05:15:05;19.40;74.90
57566;DHT22;63999;43.882;-0.310;2023-09-19T05:17:36;19.40;74.90
57566;DHT22;63999;43.882;-0.310;2023-09-19T05:20:03;19.40;74.80
57566;DHT22;63999;43.882;-0.310;2023-09-19T05:22:32;19.40;74.80
57566;DHT22;63999;43.882;-0.310;2023-09-19T05:24:58;19.40;74.70
57566;DHT22;63999;43.882;-0.310;2023-09-19T05:27:29;19.30;74.80
57566;DHT22;63999;43.882;-0.310;2023-09-19T05:30:07;19.40;74.70
57566;DHT22;63999;43.882;-0.310;2023-09-19T05:32:44;19.30;74.70
57566;DHT22;63999;43.882;-0.310;2023-09-19T05:35:15;19.30;74.70
57566;DHT22;63999;43.882;-0.310;2023-09-19T05:38:01;19.30;74.70
57566;DHT22;63999;43.882;-0.310;2023-09-19T05:40:48;19.20;74.60
57566;DHT22;63999;43.882;-0.310;2023-09-19T05:43:18;19.20;74.70
57566;DHT22;63999;43.882;-0.310;2023-09-19T05:45:54;19.20;74.60
57566;DHT22;63999;43.882;-0.310;2023-09-19T05:48:23;19.30;75.70
57566;DHT22;63999;43.882;-0.310;2023-09-19T05:50:51;19.50;75.80
57566;DHT22;63999;43.882;-0.310;2023-09-19T05:53:31;19.60;75.80
57566;DHT22;63999;43.882;-0.310;2023-09-19T05:56:04;19.70;75.60
57566;DHT22;63999;43.882;-0.310;2023-09-19T06:01:20;19.60;74.30
57566;DHT22;63999;43.882;-0.310;2023-09-19T06:03:47;19.50;74.20
57566;DHT22;63999;43.882;-0.310;2023-09-19T06:06:14;19.30;74.20
57566;DHT22;63999;43.882;-0.310;2023-09-19T06:08:40;19.30;74.40
57566;DHT22;63999;43.882;-0.310;2023-09-19T06:11:11;19.20;74.40
57566;DHT22;63999;43.882;-0.310;2023-09-19T06:13:56;19.20;74.40
57566;DHT22;63999;43.882;-0.310;2023-09-19T06:16:22;19.20;74.40
57566;DHT22;63999;43.882;-0.310;2023-09-19T06:18:59;19.10;74.40
57566;DHT22;63999;43.882;-0.310;2023-09-19T06:21:34;19.10;74.30
57566;DHT22;63999;43.882;-0.310;2023-09-19T06:24:01;19.00;74.40
57566;DHT22;63999;43.882;-0.310;2023-09-19T06:26:28;19.00;74.50
57566;DHT22;63999;43.882;-0.310;2023-09-19T06:29:04;19.00;74.40
57566;DHT22;63999;43.882;-0.310;2023-09-19T06:31:42;19.00;74.40
57566;DHT22;63999;43.882;-0.310;2023-09-19T06:34:19;19.00;74.50
57566;DHT22;63999;43.882;-0.310;2023-09-19T06:37:05;18.90;74.50
57566;DHT22;63999;43.882;-0.310;2023-09-19T06:39:41;18.90;74.60
57566;DHT22;63999;43.882;-0.310;2023-09-19T06:42:11;18.90;74.50
57566;DHT22;63999;43.882;-0.310;2023-09-19T06:44:40;18.90;74.60
57566;DHT22;63999;43.882;-0.310;2023-09-19T06:47:26;18.90;74.60
57566;DHT22;63999;43.882;-0.310;2023-09-19T06:49:57;18.90;74.60
57566;DHT22;63999;43.882;-0.310;2023-09-19T06:52:24;18.90;74.50
57566;DHT22;63999;43.882;-0.310;2023-09-19T06:55:17;18.90;74.60
57566;DHT22;63999;43.882;-0.310;2023-09-19T06:57:45;18.90;74.50
57566;DHT22;63999;43.882;-0.310;2023-09-19T07:00:24;18.90;74.60
57566;DHT22;63999;43.882;-0.310;2023-09-19T07:03:03;18.90;74.60
57566;DHT22;63999;43.882;-0.310;2023-09-19T07:05:40;19.00;74.60
57566;DHT22;63999;43.882;-0.310;2023-09-19T07:08:16;19.00;74.70
57566;DHT22;63999;43.882;-0.310;2023-09-19T07:11:00;19.10;74.60
57566;DHT22;63999;43.882;-0.310;2023-09-19T07:13:27;19.10;74.60
57566;DHT22;63999;43.882;-0.310;2023-09-19T07:16:07;19.20;74.60
57566;DHT22;63999;43.882;-0.310;2023-09-19T07:18:36;19.30;74.60
57566;DHT22;63999;43.882;-0.310;2023-09-19T07:21:06;19.30;74.50
57566;DHT22;63999;43.882;-0.310;2023-09-19T07:23:41;19.40;74.60
57566;DHT22;63999;43.882;-0.310;2023-09-19T07:26:12;19.50;74.50
57566;DHT22;63999;43.882;-0.310;2023-09-19T07:28:48;19.50;74.60
57566;DHT22;63999;43.882;-0.310;2023-09-19T07:31:18;19.60;74.70
57566;DHT22;63999;43.882;-0.310;2023-09-19T07:33:50;19.70;74.70
57566;DHT22;63999;43.882;-0.310;2023-09-19T07:36:18;19.70;74.80
57566;DHT22;63999;43.882;-0.310;2023-09-19T07:38:46;19.90;74.80
57566;DHT22;63999;43.882;-0.310;2023-09-19T07:41:14;20.00;75.00
57566;DHT22;63999;43.882;-0.310;2023-09-19T07:43:41;20.00;75.10
57566;DHT22;63999;43.882;-0.310;2023-09-19T07:46:10;20.00;75.10
57566;DHT22;63999;43.882;-0.310;2023-09-19T07:48:47;20.10;75.20
57566;DHT22;63999;43.882;-0.310;2023-09-19T07:51:15;20.10;75.40
57566;DHT22;63999;43.882;-0.310;2023-09-19T07:53:43;20.20;75.40
57566;DHT22;63999;43.882;-0.310;2023-09-19T07:56:10;20.30;75.50
57566;DHT22;63999;43.882;-0.310;2023-09-19T07:58:39;20.30;75.60
57566;DHT22;63999;43.882;-0.310;2023-09-19T08:01:15;20.30;75.80
57566;DHT22;63999;43.882;-0.310;2023-09-19T08:03:48;20.50;76.00
57566;DHT22;63999;43.882;-0.310;2023-09-19T08:06:15;20.50;75.90
57566;DHT22;63999;43.882;-0.310;2023-09-19T08:08:46;20.50;76.10
57566;DHT22;63999;43.882;-0.310;2023-09-19T08:11:16;20.60;76.10
57566;DHT22;63999;43.882;-0.310;2023-09-19T08:13:47;20.50;76.10
57566;DHT22;63999;43.882;-0.310;2023-09-19T08:16:17;20.60;76.50
57566;DHT22;63999;43.882;-0.310;2023-09-19T08:18:49;20.60;76.50
57566;DHT22;63999;43.882;-0.310;2023-09-19T08:21:22;20.70;76.70
57566;DHT22;63999;43.882;-0.310;2023-09-19T08:23:52;20.80;76.80
57566;DHT22;63999;43.882;-0.310;2023-09-19T08:26:23;20.90;76.90
57566;DHT22;63999;43.882;-0.310;2023-09-19T08:28:52;20.90;76.70
57566;DHT22;63999;43.882;-0.310;2023-09-19T08:31:30;20.90;76.80
57566;DHT22;63999;43.882;-0.310;2023-09-19T08:34:09;21.00;77.20
57566;DHT22;63999;43.882;-0.310;2023-09-19T08:36:36;21.10;77.20
57566;DHT22;63999;43.882;-0.310;2023-09-19T08:39:04;21.10;78.00
57566;DHT22;63999;43.882;-0.310;2023-09-19T08:41:38;21.50;77.70
57566;DHT22;63999;43.882;-0.310;2023-09-19T08:44:08;21.50;77.50
57566;DHT22;63999;43.882;-0.310;2023-09-19T08:46:40;21.50;77.20
57566;DHT22;63999;43.882;-0.310;2023-09-19T08:50:11;21.40;77.80
57566;DHT22;63999;43.882;-0.310;2023-09-19T08:52:47;21.70;78.40
57566;DHT22;63999;43.882;-0.310;2023-09-19T08:55:21;21.60;77.80
57566;DHT22;63999;43.882;-0.310;2023-09-19T08:58:00;21.50;78.30
57566;DHT22;63999;43.882;-0.310;2023-09-19T09:00:28;21.60;78.40
57566;DHT22;63999;43.882;-0.310;2023-09-19T09:02:56;21.70;78.40
57566;DHT22;63999;43.882;-0.310;2023-09-19T09:05:23;21.70;78.80
57566;DHT22;63999;43.882;-0.310;2023-09-19T09:07:51;21.90;78.40
57566;DHT22;63999;43.882;-0.310;2023-09-19T09:10:21;22.00;79.90
57566;DHT22;63999;43.882;-0.310;2023-09-19T09:12:58;22.20;78.60
57566;DHT22;63999;43.882;-0.310;2023-09-19T09:15:38;22.10;78.10
57566;DHT22;63999;43.882;-0.310;2023-09-19T09:18:10;22.00;76.90
57566;DHT22;63999;43.882;-0.310;2023-09-19T09:20:37;21.90;76.90
57566;DHT22;63999;43.882;-0.310;2023-09-19T09:23:06;21.70;78.50
57566;DHT22;63999;43.882;-0.310;2023-09-19T09:25:51;21.90;79.00
57566;DHT22;63999;43.882;-0.310;2023-09-19T09:28:32;22.10;79.10
57566;DHT22;63999;43.882;-0.310;2023-09-19T09:31:23;22.10;78.20
57566;DHT22;63999;43.882;-0.310;2023-09-19T09:33:55;22.10;78.60
57566;DHT22;63999;43.882;-0.310;2023-09-19T09:36:41;22.20;79.10
57566;DHT22;63999;43.882;-0.310;2023-09-19T09:39:15;22.30;79.30
57566;DHT22;63999;43.882;-0.310;2023-09-19T09:41:59;22.30;79.10
57566;DHT22;63999;43.882;-0.310;2023-09-19T09:44:28;22.40;79.00
57566;DHT22;63999;43.882;-0.310;2023-09-19T09:47:04;22.40;79.90
57566;DHT22;63999;43.882;-0.310;2023-09-19T09:50:01;22.50;78.20
57566;DHT22;63999;43.882;-0.310;2023-09-19T09:52:46;22.30;77.60
57566;DHT22;63999;43.882;-0.310;2023-09-19T09:55:29;22.20;78.40
57566;DHT22;63999;43.882;-0.310;2023-09-19T10:04:33;22.00;78.30
57566;DHT22;63999;43.882;-0.310;2023-09-19T10:07:02;22.00;77.90
57566;DHT22;63999;43.882;-0.310;2023-09-19T10:09:45;22.00;78.10
57566;DHT22;63999;43.882;-0.310;2023-09-19T10:12:13;22.10;78.20
57566;DHT22;63999;43.882;-0.310;2023-09-19T10:14:41;22.30;78.80
57566;DHT22;63999;43.882;-0.310;2023-09-19T10:17:10;22.30;78.20
57566;DHT22;63999;43.882;-0.310;2023-09-19T10:22:12;22.20;77.60
57566;DHT22;63999;43.882;-0.310;2023-09-19T10:24:47;22.20;78.30
57566;DHT22;63999;43.882;-0.310;2023-09-19T10:27:16;22.30;77.30
57566;DHT22;63999;43.882;-0.310;2023-09-19T10:29:44;22.30;78.20
57566;DHT22;63999;43.882;-0.310;2023-09-19T10:32:14;22.30;77.20
57566;DHT22;63999;43.882;-0.310;2023-09-19T10:34:46;22.20;78.10
57566;DHT22;63999;43.882;-0.310;2023-09-19T10:37:13;22.20;78.00
57566;DHT22;63999;43.882;-0.310;2023-09-19T10:39:40;22.20;77.50
57566;DHT22;63999;43.882;-0.310;2023-09-19T10:42:07;22.20;77.60
57566;DHT22;63999;43.882;-0.310;2023-09-19T10:44:37;22.20;77.60
57566;DHT22;63999;43.882;-0.310;2023-09-19T10:47:08;22.20;77.60
57566;DHT22;63999;43.882;-0.310;2023-09-19T10:49:34;22.10;77.20
57566;DHT22;63999;43.882;-0.310;2023-09-19T10:52:01;22.10;77.30
57566;DHT22;63999;43.882;-0.310;2023-09-19T10:54:31;22.20;77.50
57566;DHT22;63999;43.882;-0.310;2023-09-19T10:56:58;22.20;77.80
57566;DHT22;63999;43.882;-0.310;2023-09-19T10:59:25;22.20;77.50
57566;DHT22;63999;43.882;-0.310;2023-09-19T11:01:56;22.20;77.50
57566;DHT22;63999;43.882;-0.310;2023-09-19T11:04:31;22.20;77.10
57566;DHT22;63999;43.882;-0.310;2023-09-19T11:07:26;22.20;77.80
57566;DHT22;63999;43.882;-0.310;2023-09-19T11:10:07;22.20;77.50
57566;DHT22;63999;43.882;-0.310;2023-09-19T11:12:55;22.10;77.00
57566;DHT22;63999;43.882;-0.310;2023-09-19T11:26:43;22.20;77.70
57566;DHT22;63999;43.882;-0.310;2023-09-19T11:29:26;22.20;77.80
57566;DHT22;63999;43.882;-0.310;2023-09-19T11:31:52;22.30;77.20
57566;DHT22;63999;43.882;-0.310;2023-09-19T11:40:09;22.30;77.60
57566;DHT22;63999;43.882;-0.310;2023-09-19T11:42:48;22.30;77.90
57566;DHT22;63999;43.882;-0.310;2023-09-19T11:48:23;22.30;77.00
57566;DHT22;63999;43.882;-0.310;2023-09-19T11:50:51;22.30;77.80
57566;DHT22;63999;43.882;-0.310;2023-09-19T11:53:18;22.30;78.00
57566;DHT22;63999;43.882;-0.310;2023-09-19T11:55:45;22.40;77.10
57566;DHT22;63999;43.882;-0.310;2023-09-19T11:58:18;22.30;76.90
57566;DHT22;63999;43.882;-0.310;2023-09-19T12:00:45;22.30;76.80
57566;DHT22;63999;43.882;-0.310;2023-09-19T12:03:12;22.30;78.00
57566;DHT22;63999;43.882;-0.310;2023-09-19T12:05:40;22.40;77.60
57566;DHT22;63999;43.882;-0.310;2023-09-19T12:08:07;22.50;77.90
57566;DHT22;63999;43.882;-0.310;2023-09-19T12:10:48;22.50;76.80
57566;DHT22;63999;43.882;-0.310;2023-09-19T12:13:20;22.50;77.40
57566;DHT22;63999;43.882;-0.310;2023-09-19T12:15:46;22.50;77.80
57566;DHT22;63999;43.882;-0.310;2023-09-19T12:18:29;22.50;77.80
57566;DHT22;63999;43.882;-0.310;2023-09-19T12:20:55;22.50;77.50
57566;DHT22;63999;43.882;-0.310;2023-09-19T12:23:23;22.50;77.40
57566;DHT22;63999;43.882;-0.310;2023-09-19T12:25:49;22.50;77.70
57566;DHT22;63999;43.882;-0.310;2023-09-19T12:28:18;22.50;77.40
57566;DHT22;63999;43.882;-0.310;2023-09-19T12:30:44;22.50;77.70
57566;DHT22;63999;43.882;-0.310;2023-09-19T12:33:20;22.50;77.50
57566;DHT22;63999;43.882;-0.310;2023-09-19T12:35:50;22.40;76.90
57566;DHT22;63999;43.882;-0.310;2023-09-19T12:38:28;22.30;77.00
57566;DHT22;63999;43.882;-0.310;2023-09-19T12:40:57;22.40;77.80
57566;DHT22;63999;43.882;-0.310;2023-09-19T12:43:26;22.50;77.50
57566;DHT22;63999;43.882;-0.310;2023-09-19T12:45:52;22.50;76.50
57566;DHT22;63999;43.882;-0.310;2023-09-19T12:48:23;22.40;76.50
57566;DHT22;63999;43.882;-0.310;2023-09-19T12:51:04;22.40;76.60
57566;DHT22;63999;43.882;-0.310;2023-09-19T12:56:06;22.30;76.20
57566;DHT22;63999;43.882;-0.310;2023-09-19T12:58:34;22.30;76.60
57566;DHT22;63999;43.882;-0.310;2023-09-19T13:01:01;22.30;76.50
57566;DHT22;63999;43.882;-0.310;2023-09-19T13:03:30;22.30;76.20
57566;DHT22;63999;43.882;-0.310;2023-09-19T13:06:03;22.40;77.50
57566;DHT22;63999;43.882;-0.310;2023-09-19T13:08:34;22.30;76.60
57566;DHT22;63999;43.882;-0.310;2023-09-19T13:11:04;22.40;77.40
57566;DHT22;63999;43.882;-0.310;2023-09-19T13:13:36;22.50;76.90
57566;DHT22;63999;43.882;-0.310;2023-09-19T13:16:03;22.50;76.60
57566;DHT22;63999;43.882;-0.310;2023-09-19T13:18:48;22.50;77.00
57566;DHT22;63999;43.882;-0.310;2023-09-19T13:21:17;22.60;77.30
57566;DHT22;63999;43.882;-0.310;2023-09-19T13:23:54;22.60;77.20
57566;DHT22;63999;43.882;-0.310;2023-09-19T13:26:27;22.50;76.50
57566;DHT22;63999;43.882;-0.310;2023-09-19T13:28:54;22.50;76.20
57566;DHT22;63999;43.882;-0.310;2023-09-19T13:31:20;22.60;77.40
57566;DHT22;63999;43.882;-0.310;2023-09-19T13:33:48;22.60;76.30
57566;DHT22;63999;43.882;-0.310;2023-09-19T13:36:14;22.60;76.50
57566;DHT22;63999;43.882;-0.310;2023-09-19T13:38:41;22.60;77.20
57566;DHT22;63999;43.882;-0.310;2023-09-19T13:41:12;22.50;75.50
57566;DHT22;63999;43.882;-0.310;2023-09-19T13:43:39;22.50;75.70
57566;DHT22;63999;43.882;-0.310;2023-09-19T13:46:05;22.50;76.20
57566;DHT22;63999;43.882;-0.310;2023-09-19T13:48:33;22.50;76.80
57566;DHT22;63999;43.882;-0.310;2023-09-19T13:51:02;22.50;76.60
57566;DHT22;63999;43.882;-0.310;2023-09-19T13:53:29;22.60;77.50
57566;DHT22;63999;43.882;-0.310;2023-09-19T13:55:54;22.70;76.60
57566;DHT22;63999;43.882;-0.310;2023-09-19T13:58:20;22.70;77.30
57566;DHT22;63999;43.882;-0.310;2023-09-19T14:00:48;22.70;76.60
57566;DHT22;63999;43.882;-0.310;2023-09-19T14:03:14;22.70;77.50
57566;DHT22;63999;43.882;-0.310;2023-09-19T14:05:40;22.70;76.20
57566;DHT22;63999;43.882;-0.310;2023-09-19T14:08:08;22.60;76.00
57566;DHT22;63999;43.882;-0.310;2023-09-19T14:10:34;22.70;77.30
57566;DHT22;63999;43.882;-0.310;2023-09-19T14:13:00;22.70;77.00
57566;DHT22;63999;43.882;-0.310;2023-09-19T14:15:27;22.80;76.10
57566;DHT22;63999;43.882;-0.310;2023-09-19T14:17:57;22.60;75.60
57566;DHT22;63999;43.882;-0.310;2023-09-19T14:20:23;22.60;76.70
57566;DHT22;63999;43.882;-0.310;2023-09-19T14:22:48;22.70;76.80
57566;DHT22;63999;43.882;-0.310;2023-09-19T14:25:14;22.80;77.40
57566;DHT22;63999;43.882;-0.310;2023-09-19T14:27:40;22.80;77.50
57566;DHT22;63999;43.882;-0.310;2023-09-19T14:30:07;22.90;77.20
57566;DHT22;63999;43.882;-0.310;2023-09-19T14:32:34;22.90;77.20
57566;DHT22;63999;43.882;-0.310;2023-09-19T14:35:18;22.90;77.10
57566;DHT22;63999;43.882;-0.310;2023-09-19T14:37:44;22.90;77.50
57566;DHT22;63999;43.882;-0.310;2023-09-19T14:40:11;22.90;76.40
57566;DHT22;63999;43.882;-0.310;2023-09-19T14:42:39;22.80;77.00
57566;DHT22;63999;43.882;-0.310;2023-09-19T14:45:06;22.80;76.90
57566;DHT22;63999;43.882;-0.310;2023-09-19T14:47:33;22.80;77.50
57566;DHT22;63999;43.882;-0.310;2023-09-19T14:50:03;22.90;77.40
57566;DHT22;63999;43.882;-0.310;2023-09-19T14:52:32;22.90;76.90
57566;DHT22;63999;43.882;-0.310;2023-09-19T14:54:59;22.90;77.50
57566;DHT22;63999;43.882;-0.310;2023-09-19T14:57:25;22.90;77.50
57566;DHT22;63999;43.882;-0.310;2023-09-19T14:59:52;22.90;76.80
57566;DHT22;63999;43.882;-0.310;2023-09-19T15:02:17;22.90;76.60
57566;DHT22;63999;43.882;-0.310;2023-09-19T15:04:43;22.80;77.00
57566;DHT22;63999;43.882;-0.310;2023-09-19T15:07:10;22.90;77.10
57566;DHT22;63999;43.882;-0.310;2023-09-19T15:09:36;22.90;77.30
57566;DHT22;63999;43.882;-0.310;2023-09-19T15:12:01;22.90;77.10
57566;DHT22;63999;43.882;-0.310;2023-09-19T15:14:27;22.90;77.30
57566;DHT22;63999;43.882;-0.310;2023-09-19T15:16:55;23.00;77.10
57566;DHT22;63999;43.882;-0.310;2023-09-19T15:19:21;23.00;77.60
57566;DHT22;63999;43.882;-0.310;2023-09-19T15:21:50;23.10;77.20
57566;DHT22;63999;43.882;-0.310;2023-09-19T15:24:16;23.10;77.30
57566;DHT22;63999;43.882;-0.310;2023-09-19T15:26:42;23.00;76.80
57566;DHT22;63999;43.882;-0.310;2023-09-19T15:29:10;23.00;77.10
57566;DHT22;63999;43.882;-0.310;2023-09-19T15:31:36;23.00;77.50
57566;DHT22;63999;43.882;-0.310;2023-09-19T15:34:05;23.10;77.10
57566;DHT22;63999;43.882;-0.310;2023-09-19T15:36:34;23.00;77.90
57566;DHT22;63999;43.882;-0.310;2023-09-19T15:39:03;23.10;77.70
57566;DHT22;63999;43.882;-0.310;2023-09-19T15:41:33;23.10;77.30
57566;DHT22;63999;43.882;-0.310;2023-09-19T15:44:01;23.10;77.40
57566;DHT22;63999;43.882;-0.310;2023-09-19T15:46:31;23.20;76.90
57566;DHT22;63999;43.882;-0.310;2023-09-19T15:48:59;23.20;77.50
57566;DHT22;63999;43.882;-0.310;2023-09-19T15:51:25;23.20;77.30
57566;DHT22;63999;43.882;-0.310;2023-09-19T15:53:53;23.10;77.20
57566;DHT22;63999;43.882;-0.310;2023-09-19T15:56:21;23.20;77.50
57566;DHT22;63999;43.882;-0.310;2023-09-19T15:58:52;23.20;77.70
57566;DHT22;63999;43.882;-0.310;2023-09-19T16:01:19;23.20;77.50
57566;DHT22;63999;43.882;-0.310;2023-09-19T16:03:50;23.20;76.90
57566;DHT22;63999;43.882;-0.310;2023-09-19T16:06:25;23.20;77.50
57566;DHT22;63999;43.882;-0.310;2023-09-19T16:08:53;23.30;77.90
57566;DHT22;63999;43.882;-0.310;2023-09-19T16:11:20;23.20;77.10
57566;DHT22;63999;43.882;-0.310;2023-09-19T16:13:48;23.30;78.40
57566;DHT22;63999;43.882;-0.310;2023-09-19T16:16:14;23.40;77.70
57566;DHT22;63999;43.882;-0.310;2023-09-19T16:18:52;23.40;77.10
57566;DHT22;63999;43.882;-0.310;2023-09-19T16:21:21;23.40;77.30
57566;DHT22;63999;43.882;-0.310;2023-09-19T16:23:48;23.40;77.30
57566;DHT22;63999;43.882;-0.310;2023-09-19T16:26:16;23.40;77.20
57566;DHT22;63999;43.882;-0.310;2023-09-19T16:28:45;23.40;77.30